Time;durP1;ratioP1;P1;durP2;ratioP2;P2;SDS_P1;SDS_P2;PMS_P1;PMS_P2;Temp;Humidity;BMP_temperature;BMP_pressure;BME280_temperature;BME280_humidity;BME280_pressure;Samples;Min_cycle;Max_cycle;Signal;HPM_P1;HPM_P2
2022/05/24 00:02:09;;;;;;;9.43;4.30;;;;;;;17.46;100.00;100626.00;4883297;29;20108;-72
2022/05/24 00:04:55;;;;;;;8.88;4.40;;;;;;;17.60;100.00;100624.44;4882580;29;20025;-72
2022/05/24 00:07:42;;;;;;;12.63;5.28;;;;;;;17.48;100.00;100618.88;4869292;29;20486;-72
2022/05/24 00:10:30;;;;;;;7.15;4.47;;;;;;;17.32;100.00;100629.25;4882193;29;20021;-72
2022/05/24 00:13:15;;;;;;;6.20;4.30;;;;;;;17.22;100.00;100629.75;4882531;29;20064;-71
2022/05/24 00:16:02;;;;;;;8.15;4.38;;;;;;;17.24;100.00;100627.91;4868462;29;20036;-71
2022/05/24 00:18:49;;;;;;;8.93;4.60;;;;;;;17.45;100.00;100624.31;4882595;29;20043;-72
2022/05/24 00:21:35;;;;;;;8.75;4.20;;;;;;;17.42;100.00;100619.13;4869394;29;20033;-73
2022/05/24 00:24:21;;;;;;;6.43;4.60;;;;;;;17.43;100.00;100627.03;4882435;29;20096;-72
2022/05/24 00:27:08;;;;;;;8.30;5.00;;;;;;;17.06;100.00;100618.16;4881902;29;20052;-72
2022/05/24 00:29:54;;;;;;;9.77;5.03;;;;;;;17.31;100.00;100629.34;4881886;29;20370;-72
2022/05/24 00:32:40;;;;;;;7.80;4.80;;;;;;;17.59;100.00;100630.66;4882314;29;20375;-72
2022/05/24 00:35:26;;;;;;;8.90;4.53;;;;;;;16.93;100.00;100633.75;4881573;29;20033;-73
2022/05/24 00:38:19;;;;;;;10.45;5.00;;;;;;;17.21;100.00;100630.69;4881996;29;20033;-72
2022/05/24 00:41:11;;;;;;;9.13;4.70;;;;;;;17.13;100.00;100619.59;4882140;29;20056;-72
2022/05/24 00:44:10;;;;;;;7.82;4.57;;;;;;;17.32;100.00;100621.31;4882225;29;20364;-73
2022/05/24 00:46:58;;;;;;;10.85;5.35;;;;;;;17.06;100.00;100612.88;4881478;29;20025;-72
2022/05/24 00:49:49;;;;;;;11.25;5.13;;;;;;;16.99;100.00;100622.00;4869117;29;20029;-73
2022/05/24 00:52:54;;;;;;;7.53;4.63;;;;;;;16.74;100.00;100616.97;4880743;29;20085;-72
2022/05/24 00:55:58;;;;;;;12.38;5.35;;;;;;;16.84;100.00;100612.97;4869338;29;20033;-73
2022/05/24 00:58:50;;;;;;;9.50;5.40;;;;;;;16.92;100.00;100618.78;4868175;29;20035;-72
2022/05/24 01:01:47;;;;;;;8.90;5.10;;;;;;;16.72;100.00;100620.59;4868319;29;20104;-72
2022/05/24 01:04:33;;;;;;;9.35;4.70;;;;;;;16.76;100.00;100615.09;4868479;29;20439;-72
2022/05/24 01:07:19;;;;;;;11.68;4.95;;;;;;;16.96;100.00;100607.13;4881719;29;20033;-72
2022/05/24 01:10:31;;;;;;;9.75;5.40;;;;;;;16.81;100.00;100626.34;4867981;29;20108;-72
2022/05/24 01:13:27;;;;;;;10.32;4.70;;;;;;;16.93;100.00;100619.63;4880647;29;20044;-72
2022/05/24 01:16:14;;;;;;;8.20;4.40;;;;;;;16.71;100.00;100619.72;4868137;29;20032;-72
2022/05/24 01:19:00;;;;;;;10.23;5.30;;;;;;;16.58;100.00;100622.97;4868386;29;20058;-72
2022/05/24 01:21:45;;;;;;;9.15;5.68;;;;;;;16.36;100.00;100620.34;4881685;29;20053;-73
2022/05/24 01:24:42;;;;;;;12.88;5.20;;;;;;;16.25;100.00;100624.38;4880932;29;20068;-72
2022/05/24 01:27:28;;;;;;;9.48;4.80;;;;;;;16.40;100.00;100623.75;4881492;29;20039;-72
2022/05/24 01:30:14;;;;;;;12.20;5.22;;;;;;;16.39;100.00;100619.38;4881681;29;20060;-72
2022/05/24 01:36:09;;;;;;;8.43;5.00;;;;;;;16.37;100.00;100610.66;4881556;29;20021;-72
2022/05/24 01:39:01;;;;;;;9.98;4.93;;;;;;;16.53;100.00;100606.44;4868185;29;20025;-72
2022/05/24 01:41:48;;;;;;;5.97;4.88;;;;;;;16.60;100.00;100611.41;4867567;29;20087;-73
2022/05/24 01:44:40;;;;;;;10.30;5.07;;;;;;;16.46;100.00;100599.69;4881237;29;20431;-72
2022/05/24 01:47:27;;;;;;;7.95;5.07;;;;;;;16.48;100.00;100604.00;4880503;29;20045;-72
2022/05/24 01:50:17;;;;;;;7.80;4.82;;;;;;;16.83;100.00;100605.09;4880843;29;20088;-72
2022/05/24 01:53:11;;;;;;;8.73;4.93;;;;;;;16.78;100.00;100612.38;4881210;29;20097;-72
2022/05/24 01:55:59;;;;;;;6.85;4.97;;;;;;;16.46;100.00;100615.56;4881491;29;20487;-72
2022/05/24 01:58:50;;;;;;;7.00;4.82;;;;;;;16.30;100.00;100620.63;4880370;29;20040;-72
2022/05/24 02:01:57;;;;;;;6.28;4.50;;;;;;;16.47;100.00;100617.31;4867524;29;20033;-72
2022/05/24 02:04:43;;;;;;;10.27;4.57;;;;;;;16.29;100.00;100612.75;4867120;29;20426;-72
2022/05/24 02:07:29;;;;;;;9.25;4.57;;;;;;;16.13;100.00;100622.25;4881217;29;20040;-73
2022/05/24 02:10:14;;;;;;;9.35;4.70;;;;;;;16.30;100.00;100625.03;4881055;29;20112;-72
2022/05/24 02:13:02;;;;;;;9.52;4.72;;;;;;;16.42;100.00;100625.44;4867933;29;20025;-73
2022/05/24 02:15:49;;;;;;;8.88;4.50;;;;;;;16.67;100.00;100619.91;4880295;29;20112;-71
2022/05/24 02:18:39;;;;;;;8.73;4.75;;;;;;;16.44;100.00;100628.84;4880760;29;20362;-72
2022/05/24 02:21:25;;;;;;;7.95;4.50;;;;;;;16.43;100.00;100626.31;4866497;29;20045;-72
2022/05/24 02:24:20;;;;;;;6.93;4.18;;;;;;;16.48;100.00;100633.09;4867232;29;20033;-72
2022/05/24 02:27:06;;;;;;;5.72;3.90;;;;;;;16.50;100.00;100630.38;4881200;29;20037;-72
2022/05/24 02:29:53;;;;;;;5.05;3.70;;;;;;;16.69;100.00;100624.25;4880748;29;20484;-72
2022/05/24 02:32:38;;;;;;;8.45;3.97;;;;;;;16.10;100.00;100617.09;4880176;29;20530;-72
2022/05/24 02:35:24;;;;;;;5.40;3.47;;;;;;;16.03;100.00;100631.50;4879938;29;20029;-71
2022/05/24 02:38:10;;;;;;;6.15;3.78;;;;;;;16.11;100.00;100624.94;4880358;29;20033;-71
2022/05/24 02:44:08;;;;;;;5.75;3.83;;;;;;;16.24;100.00;100628.78;4884417;29;20458;-72
2022/05/24 02:46:54;;;;;;;6.97;3.55;;;;;;;16.12;100.00;100626.66;4870852;29;20059;-72
2022/05/24 02:49:40;;;;;;;11.80;3.65;;;;;;;16.42;100.00;100629.84;4884104;29;20332;-73
2022/05/24 02:52:26;;;;;;;5.53;3.50;;;;;;;16.22;100.00;100635.94;4871070;29;20037;-73
2022/05/24 02:55:13;;;;;;;6.78;3.70;;;;;;;16.03;100.00;100628.84;4884349;29;20061;-72
2022/05/24 02:57:59;;;;;;;5.78;3.50;;;;;;;16.14;100.00;100629.25;4884202;29;20124;-72
2022/05/24 03:00:45;;;;;;;6.75;3.90;;;;;;;16.41;100.00;100630.78;4883671;29;20032;-74
2022/05/24 03:03:31;;;;;;;4.95;3.55;;;;;;;16.00;100.00;100634.25;4884104;29;20525;-72
2022/05/24 03:06:17;;;;;;;6.65;3.50;;;;;;;16.03;100.00;100629.69;4883667;29;20465;-72
2022/05/24 03:15:13;;;;;;;7.10;3.88;;;;;;;16.19;100.00;100645.81;4883672;29;20029;-72
2022/05/24 03:17:59;;;;;;;7.50;3.55;;;;;;;16.15;100.00;100645.03;4871105;29;20104;-73
2022/05/24 03:20:45;;;;;;;6.07;3.17;;;;;;;16.20;100.00;100644.88;4883477;29;20056;-72
2022/05/24 03:23:32;;;;;;;6.45;3.72;;;;;;;16.20;100.00;100648.34;4883401;29;20113;-73
2022/05/24 03:26:18;;;;;;;5.68;3.60;;;;;;;16.02;100.00;100645.59;4882952;29;20056;-72
2022/05/24 03:29:05;;;;;;;7.72;3.95;;;;;;;16.46;100.00;100644.66;4883382;29;20029;-72
2022/05/24 03:31:52;;;;;;;4.25;3.85;;;;;;;15.92;100.00;100631.94;4870747;29;20037;-72
2022/05/24 03:34:38;;;;;;;6.50;3.75;;;;;;;15.83;100.00;100634.94;4882794;29;20029;-73
2022/05/24 03:37:24;;;;;;;7.32;3.80;;;;;;;16.29;100.00;100637.41;4869960;29;20025;-72
2022/05/24 03:40:11;;;;;;;6.40;4.32;;;;;;;16.24;100.00;100641.19;4870065;29;20041;-72
2022/05/24 03:42:57;;;;;;;8.50;3.92;;;;;;;16.46;100.00;100637.59;4882919;29;20029;-72
2022/05/24 03:45:43;;;;;;;8.25;3.83;;;;;;;16.37;100.00;100635.31;4883008;29;20056;-72
2022/05/24 03:48:29;;;;;;;7.00;3.22;;;;;;;16.33;100.00;100640.78;4883058;29;20033;-72
2022/05/24 03:51:14;;;;;;;4.55;3.38;;;;;;;16.25;100.00;100643.75;4883114;29;20032;-72
2022/05/24 03:54:00;;;;;;;5.40;3.78;;;;;;;16.43;100.00;100642.16;4883349;29;20443;-71
2022/05/24 03:59:51;;;;;;;6.28;3.42;;;;;;;16.83;100.00;100650.06;4882828;29;20096;-73
2022/05/24 04:02:37;;;;;;;6.97;3.83;;;;;;;16.52;100.00;100655.00;4882620;29;20374;-73
2022/05/24 04:05:22;;;;;;;6.38;3.65;;;;;;;16.66;100.00;100644.66;4881699;29;20025;-72
2022/05/24 04:08:09;;;;;;;4.43;3.25;;;;;;;16.56;100.00;100654.78;4882523;29;20037;-73
2022/05/24 04:11:13;;;;;;;6.18;3.75;;;;;;;16.65;100.00;100651.75;4883152;29;20036;-74
2022/05/24 04:13:59;;;;;;;6.60;3.95;;;;;;;16.69;100.00;100644.53;4881819;29;20037;-72
2022/05/24 04:16:45;;;;;;;6.47;4.05;;;;;;;16.73;100.00;100643.47;4882118;29;20054;-73
2022/05/24 04:19:31;;;;;;;7.95;3.70;;;;;;;16.97;100.00;100643.28;4882817;29;20166;-73
2022/05/24 04:22:16;;;;;;;4.75;3.75;;;;;;;17.04;100.00;100644.69;4869591;29;20097;-72
2022/05/24 04:25:03;;;;;;;4.72;3.33;;;;;;;17.21;100.00;100641.28;4882577;29;20025;-73
2022/05/24 04:27:49;;;;;;;4.97;3.53;;;;;;;17.02;100.00;100645.69;4882300;29;20459;-73
2022/05/24 04:30:35;;;;;;;6.88;3.40;;;;;;;17.00;100.00;100647.56;4882721;29;20036;-73
2022/05/24 04:33:21;;;;;;;7.18;3.70;;;;;;;17.34;100.00;100639.78;4869657;29;20459;-73
2022/05/24 04:36:06;;;;;;;10.25;3.40;;;;;;;17.52;100.00;100644.28;4882178;29;20168;-73
2022/05/24 04:38:52;;;;;;;9.52;4.18;;;;;;;17.52;100.00;100652.22;4881908;29;20482;-73
2022/05/24 04:44:43;;;;;;;6.10;3.33;;;;;;;17.55;100.00;100649.41;4882248;29;20025;-73
2022/05/24 04:47:30;;;;;;;7.93;3.58;;;;;;;17.81;100.00;100649.06;4881839;29;20477;-73
2022/05/24 04:50:16;;;;;;;7.00;3.92;;;;;;;17.75;100.00;100652.84;4881725;29;20040;-72
2022/05/24 04:53:02;;;;;;;5.35;3.60;;;;;;;17.80;100.00;100650.84;4881827;29;20105;-73
2022/05/24 04:55:49;;;;;;;6.32;3.30;;;;;;;17.83;100.00;100655.13;4881764;29;20112;-73
2022/05/24 04:58:35;;;;;;;6.53;3.53;;;;;;;18.10;100.00;100659.09;4881839;29;20052;-73
2022/05/24 05:01:21;;;;;;;5.00;3.25;;;;;;;18.12;100.00;100663.38;4869106;29;20028;-73
2022/05/24 05:04:07;;;;;;;7.43;3.33;;;;;;;18.12;100.00;100662.53;4881387;29;20481;-75
2022/05/24 05:06:52;;;;;;;4.70;3.17;;;;;;;18.39;100.00;100670.03;4868827;29;20048;-73
2022/05/24 05:09:38;;;;;;;5.95;3.20;;;;;;;18.33;100.00;100667.63;4881672;29;20108;-73
2022/05/24 05:12:26;;;;;;;6.68;3.30;;;;;;;18.68;100.00;100674.72;4881633;29;20412;-72
2022/05/24 05:15:13;;;;;;;11.82;3.47;;;;;;;18.78;100.00;100667.97;4882031;29;20141;-72
2022/05/24 05:18:07;;;;;;;8.25;3.33;;;;;;;18.79;100.00;100666.19;4868319;29;20375;-72
2022/05/24 05:20:53;;;;;;;8.63;3.60;;;;;;;18.66;100.00;100675.72;4881194;29;20060;-72
2022/05/24 05:23:39;;;;;;;5.55;3.40;;;;;;;19.07;100.00;100677.97;4880278;29;20032;-72
2022/05/24 05:26:25;;;;;;;5.90;3.22;;;;;;;18.78;100.00;100675.09;4880943;29;20039;-73
2022/05/24 05:29:10;;;;;;;6.22;4.43;;;;;;;18.87;100.00;100680.78;4881261;29;20061;-73
2022/05/24 05:31:56;;;;;;;6.00;3.70;;;;;;;18.97;100.00;100682.03;4881573;29;20037;-73
2022/05/24 05:34:42;;;;;;;8.90;3.60;;;;;;;19.33;100.00;100665.94;4881376;29;20020;-73
2022/05/24 05:37:30;;;;;;;4.10;3.05;;;;;;;19.22;100.00;100676.28;4881661;29;20061;-74
2022/05/24 05:40:16;;;;;;;6.18;3.10;;;;;;;19.14;100.00;100691.78;4881324;29;20057;-73
2022/05/24 05:43:02;;;;;;;6.75;3.13;;;;;;;19.33;100.00;100695.19;4881603;29;20072;-73
2022/05/24 05:45:53;;;;;;;6.18;3.00;;;;;;;19.50;100.00;100695.16;4880894;29;20029;-72
2022/05/24 05:48:40;;;;;;;7.57;2.90;;;;;;;19.69;100.00;100695.84;4880958;29;20096;-72
2022/05/24 05:51:25;;;;;;;6.30;2.90;;;;;;;19.83;100.00;100695.94;4881111;29;20495;-73
2022/05/24 05:54:11;;;;;;;4.28;3.08;;;;;;;20.02;100.00;100688.66;4880476;29;20363;-73
2022/05/24 05:56:57;;;;;;;12.55;4.03;;;;;;;20.19;100.00;100685.06;4867882;29;20096;-73
2022/05/24 05:59:42;;;;;;;9.45;3.40;;;;;;;20.37;100.00;100689.34;4880231;29;20021;-73
2022/05/24 06:02:28;;;;;;;8.05;3.30;;;;;;;20.49;100.00;100699.28;4880947;29;20459;-72
2022/05/24 06:05:14;;;;;;;3.78;2.70;;;;;;;20.56;100.00;100689.97;4880634;29;20455;-73
2022/05/24 06:08:01;;;;;;;5.03;2.75;;;;;;;20.52;100.00;100691.09;4880521;29;20419;-72
2022/05/24 06:10:46;;;;;;;6.07;3.08;;;;;;;20.66;100.00;100685.81;4880332;29;20048;-73
2022/05/24 06:13:33;;;;;;;7.85;4.57;;;;;;;20.85;100.00;100684.63;4868120;29;20559;-73
2022/05/24 06:16:19;;;;;;;5.43;3.55;;;;;;;20.93;100.00;100706.38;4884829;29;20052;-72
2022/05/24 06:19:05;;;;;;;6.15;2.78;;;;;;;20.86;100.00;100701.47;4884560;29;20120;-77
2022/05/24 06:21:51;;;;;;;6.80;2.60;;;;;;;20.73;100.00;100706.66;4884244;29;20033;-74
2022/05/24 06:24:37;;;;;;;7.22;2.92;;;;;;;20.92;100.00;100706.44;4884528;29;20043;-75
2022/05/24 06:27:23;;;;;;;12.20;3.08;;;;;;;21.14;100.00;100698.91;4884844;29;20083;-76
2022/05/24 06:30:09;;;;;;;6.25;2.80;;;;;;;21.17;100.00;100706.69;4870962;29;20025;-74
2022/05/24 06:32:55;;;;;;;4.05;2.80;;;;;;;21.29;100.00;100692.59;4884160;29;20025;-76
2022/05/24 06:35:42;;;;;;;6.30;2.95;;;;;;;21.14;100.00;100702.41;4883806;29;20363;-75
2022/05/24 06:38:27;;;;;;;5.72;2.90;;;;;;;21.47;100.00;100694.16;4884197;29;20044;-74
2022/05/24 06:41:13;;;;;;;4.00;2.75;;;;;;;21.69;100.00;100697.16;4884276;29;20033;-75
2022/05/24 06:43:59;;;;;;;7.30;2.65;;;;;;;21.60;100.00;100695.94;4884364;29;20044;-75
2022/05/24 06:46:44;;;;;;;3.70;2.92;;;;;;;21.49;100.00;100695.75;4884297;29;20033;-74
2022/05/24 06:49:30;;;;;;;3.58;2.92;;;;;;;21.68;100.00;100693.66;4884350;29;20033;-75
2022/05/24 06:52:17;;;;;;;4.93;2.90;;;;;;;22.11;100.00;100694.47;4883635;29;20032;-75
2022/05/24 06:55:04;;;;;;;10.88;3.33;;;;;;;22.59;99.92;100702.75;4871500;29;20039;-75
2022/05/24 06:57:50;;;;;;;5.78;2.90;;;;;;;22.27;97.10;100704.00;4883505;29;20173;-76
2022/05/24 07:03:40;;;;;;;2.40;2.13;;;;;;;22.07;95.89;100691.09;4883896;29;20037;-73
2022/05/24 07:06:26;;;;;;;4.65;2.40;;;;;;;22.87;90.48;100696.44;4870420;29;20060;-73
2022/05/24 07:09:12;;;;;;;7.30;3.70;;;;;;;23.08;87.67;100695.78;4869630;29;20029;-72
2022/05/24 07:11:58;;;;;;;4.85;3.58;;;;;;;23.32;85.37;100686.09;4883086;29;20052;-73
2022/05/24 07:14:44;;;;;;;3.13;2.30;;;;;;;23.12;87.30;100685.75;4883757;29;20071;-73
2022/05/24 07:17:30;;;;;;;3.25;2.83;;;;;;;23.53;84.54;100678.38;4869757;29;20033;-73
2022/05/24 07:20:15;;;;;;;5.47;2.90;;;;;;;23.52;82.59;100682.88;4883373;29;20155;-73
2022/05/24 07:23:14;;;;;;;3.30;2.83;;;;;;;23.48;83.86;100682.34;4883267;29;20446;-73
2022/05/24 07:26:11;;;;;;;6.18;2.75;;;;;;;23.67;80.78;100674.72;4882987;29;20041;-73
2022/05/24 07:28:56;;;;;;;10.15;3.05;;;;;;;23.80;83.64;100675.53;4882804;29;20115;-73
2022/05/24 07:31:42;;;;;;;3.85;3.00;;;;;;;24.11;80.76;100680.41;4883278;29;20477;-73
2022/05/24 07:34:28;;;;;;;4.20;2.63;;;;;;;24.45;75.99;100690.31;4869565;29;20033;-73
2022/05/24 07:37:16;;;;;;;5.30;3.00;;;;;;;24.93;71.02;100690.16;4882980;29;20036;-74
2022/05/24 07:46:19;;;;;;;4.68;2.50;;;;;;;24.94;71.11;100677.59;4883130;29;20399;-74
2022/05/24 07:49:05;;;;;;;5.95;3.25;;;;;;;25.34;70.11;100670.88;4882925;29;20094;-75
2022/05/24 07:51:50;;;;;;;4.25;2.58;;;;;;;25.34;68.40;100677.09;4869623;29;20391;-74
2022/05/24 07:54:36;;;;;;;5.40;2.55;;;;;;;25.29;66.22;100684.66;4882554;29;20025;-73
2022/05/24 07:57:22;;;;;;;5.68;3.00;;;;;;;25.14;66.72;100679.59;4882882;29;20068;-73
2022/05/24 08:00:09;;;;;;;9.32;3.00;;;;;;;24.93;69.11;100678.56;4882736;29;20411;-73
2022/05/24 08:02:55;;;;;;;6.95;3.10;;;;;;;26.14;64.70;100675.94;4869347;29;20033;-74
2022/05/24 08:05:41;;;;;;;5.78;2.70;;;;;;;25.59;65.86;100676.00;4882332;29;20025;-73
2022/05/24 08:08:28;;;;;;;8.40;3.00;;;;;;;26.10;65.83;100669.13;4869716;29;20367;-73
2022/05/24 08:11:13;;;;;;;7.47;2.75;;;;;;;26.24;63.96;100676.91;4868851;29;20371;-73
2022/05/24 08:14:02;;;;;;;7.13;2.90;;;;;;;25.36;64.12;100676.97;4882868;29;20447;-72
2022/05/24 08:16:48;;;;;;;5.13;3.28;;;;;;;26.56;61.49;100675.06;4882165;29;20451;-73
2022/05/24 08:19:33;;;;;;;3.95;2.67;;;;;;;26.94;61.07;100673.56;4882622;29;20052;-72
2022/05/24 08:22:20;;;;;;;4.18;2.40;;;;;;;26.61;61.68;100668.34;4869446;29;20480;-73
2022/05/24 08:25:07;;;;;;;8.68;2.90;;;;;;;26.72;60.60;100675.53;4881818;29;20032;-74
2022/05/24 08:27:53;;;;;;;3.92;2.40;;;;;;;25.87;62.01;100670.97;4881889;29;20033;-73
2022/05/24 08:30:40;;;;;;;6.43;2.72;;;;;;;25.26;63.74;100657.16;4882061;29;20439;-73
2022/05/24 08:33:28;;;;;;;5.15;2.58;;;;;;;25.30;66.56;100666.72;4881736;29;20047;-73
2022/05/24 08:36:14;;;;;;;3.63;2.67;;;;;;;25.65;65.77;100664.78;4867504;29;20469;-73
2022/05/24 08:38:59;;;;;;;8.40;3.25;;;;;;;26.58;62.99;100670.44;4868402;29;20048;-73
2022/05/24 08:42:20;;;;;;;18.45;10.50;;;;;;;26.92;60.98;100661.19;4882027;29;20478;-74
2022/05/24 08:48:36;;;;;;;7.35;2.85;;;;;;;26.76;60.76;100671.59;4882270;29;20036;-73
2022/05/24 08:51:31;;;;;;;7.25;4.10;;;;;;;27.11;57.85;100678.31;4868402;29;20029;-73
2022/05/24 08:54:28;;;;;;;5.22;3.63;;;;;;;27.06;53.80;100683.25;4869096;29;20041;-73
2022/05/24 08:57:21;;;;;;;3.88;2.60;;;;;;;26.52;55.21;100693.28;4881505;29;20423;-73
2022/05/24 09:00:13;;;;;;;6.07;2.70;;;;;;;27.05;54.63;100684.22;4868599;29;20059;-73
2022/05/24 09:02:58;;;;;;;7.13;6.35;;;;;;;27.69;52.83;100675.94;4880689;29;20049;-74
2022/05/24 09:05:55;;;;;;;5.65;2.83;;;;;;;28.19;50.56;100681.22;4881059;29;20457;-73
2022/05/24 09:09:02;;;;;;;4.07;2.63;;;;;;;27.49;51.12;100673.16;4880756;29;20047;-73
2022/05/24 09:11:59;;;;;;;4.47;2.38;;;;;;;28.03;49.03;100667.44;4881775;29;20029;-73
2022/05/24 09:15:15;;;;;;;3.08;2.40;;;;;;;27.75;48.55;100667.31;4880854;29;20041;-76
2022/05/24 09:18:20;;;;;;;9.30;2.60;;;;;;;27.98;50.27;100674.22;4867502;29;20025;-75
2022/05/24 09:21:05;;;;;;;3.72;2.10;;;;;;;27.49;49.17;100672.34;4881113;29;20068;-73
2022/05/24 09:23:57;;;;;;;6.13;2.50;;;;;;;27.99;49.62;100673.22;4881402;29;20434;-73
2022/05/24 09:27:22;;;;;;;4.95;2.75;;;;;;;27.79;51.70;100674.13;4881137;29;20051;-75
2022/05/24 09:30:25;;;;;;;5.13;3.10;;;;;;;27.58;52.81;100667.97;4868395;29;20029;-75
2022/05/24 09:33:29;;;;;;;7.63;3.50;;;;;;;27.33;54.29;100678.19;4881287;29;20041;-76
2022/05/24 09:36:31;;;;;;;4.47;3.03;;;;;;;27.79;52.50;100682.19;4881456;29;20518;-73
2022/05/24 09:39:38;;;;;;;4.68;2.70;;;;;;;28.35;50.50;100684.22;4881494;29;20033;-76
2022/05/24 09:42:30;;;;;;;4.50;2.45;;;;;;;28.00;50.20;100683.84;4881028;29;20370;-75
2022/05/24 09:45:27;;;;;;;5.78;2.58;;;;;;;27.65;50.58;100678.06;4882510;29;20029;-75
2022/05/24 09:48:26;;;;;;;4.43;2.60;;;;;;;27.31;51.04;100682.00;4868476;29;20029;-75
2022/05/24 09:51:12;;;;;;;7.10;2.80;;;;;;;27.49;50.18;100675.03;4881239;29;20061;-73
2022/05/24 09:53:58;;;;;;;4.60;2.33;;;;;;;27.58;51.56;100681.41;4881184;29;20462;-74
2022/05/24 09:57:20;;;;;;;3.10;2.45;;;;;;;27.94;49.08;100684.44;4868577;29;20040;-73
2022/05/24 10:00:20;;;;;;;3.75;2.53;;;;;;;27.60;50.67;100685.66;4860169;29;20045;-74
2022/05/24 10:03:08;;;;;;;4.75;2.80;;;;;;;27.77;50.46;100686.88;4881930;29;20033;-72
2022/05/24 10:06:29;;;;;;;4.97;2.60;;;;;;;27.12;50.55;100689.91;4869322;29;20044;-74
2022/05/24 10:09:18;;;;;;;3.33;2.40;;;;;;;27.23;50.15;100681.81;4867452;29;20051;-73
2022/05/24 10:12:25;;;;;;;7.10;2.53;;;;;;;27.88;49.49;100676.06;4881078;29;20028;-73
2022/05/24 10:15:13;;;;;;;3.40;2.40;;;;;;;27.77;49.79;100685.06;4881150;29;20033;-73
2022/05/24 10:18:14;;;;;;;5.10;2.70;;;;;;;27.89;49.24;100688.53;4880793;29;20370;-73
2022/05/24 10:21:18;;;;;;;4.65;3.17;;;;;;;27.45;48.88;100684.34;4880865;29;20076;-74
2022/05/24 10:24:29;;;;;;;8.35;3.80;;;;;;;26.93;48.18;100685.28;4880617;29;20367;-72
2022/05/24 10:27:34;;;;;;;6.45;2.42;;;;;;;27.14;48.44;100694.22;4881060;29;20066;-73
2022/05/24 10:31:08;;;;;;;6.50;2.22;;;;;;;27.06;48.01;100693.16;4867871;29;20037;-72
2022/05/24 10:41:09;;;;;;;5.15;3.40;;;;;;;27.44;47.69;100698.78;4871184;29;20033;-73
2022/05/24 10:43:58;;;;;;;8.80;2.22;;;;;;;27.31;48.05;100701.69;4881118;29;20144;-73
2022/05/24 10:47:17;;;;;;;3.17;2.33;;;;;;;27.35;48.53;100704.97;4866738;29;20053;-73
2022/05/24 10:50:32;;;;;;;2.75;1.98;;;;;;;27.09;47.98;100701.81;4880849;29;20134;-73
2022/05/24 10:53:31;;;;;;;4.82;2.20;;;;;;;26.88;48.11;100697.44;4879712;29;20073;-73
2022/05/24 10:56:22;;;;;;;3.83;2.00;;;;;;;27.15;47.74;100686.97;4880312;29;20037;-73
2022/05/24 10:59:17;;;;;;;5.45;2.30;;;;;;;26.78;49.02;100696.50;4880485;29;20450;-73
2022/05/24 11:02:28;;;;;;;5.68;2.58;;;;;;;26.56;49.50;100701.94;4884436;29;20460;-73
2022/05/24 11:05:30;;;;;;;4.43;2.63;;;;;;;26.82;49.74;100701.50;4863928;29;20101;-74
2022/05/24 11:08:22;;;;;;;4.20;2.60;;;;;;;26.90;50.26;100706.22;4884160;29;20033;-73
2022/05/24 11:11:26;;;;;;;3.53;2.47;;;;;;;26.80;49.86;100706.13;4882795;29;20113;-72
2022/05/24 11:14:47;;;;;;;5.07;2.40;;;;;;;27.10;49.77;100703.53;4883304;29;20113;-72
2022/05/24 11:17:32;;;;;;;4.13;2.55;;;;;;;26.90;51.32;100714.28;4883360;29;20033;-73
2022/05/24 11:20:26;;;;;;;4.70;2.85;;;;;;;27.36;51.69;100714.75;4882772;29;20477;-72
2022/05/24 11:23:18;;;;;;;6.60;2.70;;;;;;;27.95;50.39;100710.38;4882853;29;20044;-73
2022/05/24 11:26:16;;;;;;;6.60;2.55;;;;;;;27.13;51.69;100715.88;4884010;29;20052;-73
2022/05/24 11:29:17;;;;;;;5.00;2.80;;;;;;;27.12;53.92;100714.13;4883076;29;20029;-72
2022/05/24 11:32:08;;;;;;;3.53;2.40;;;;;;;26.59;54.33;100699.88;4870195;29;20027;-73
2022/05/24 11:35:01;;;;;;;7.18;2.80;;;;;;;26.30;56.07;100689.81;4882452;29;20024;-73
2022/05/24 11:37:55;;;;;;;7.90;3.17;;;;;;;26.05;58.03;100658.78;4883847;29;20036;-72
2022/05/24 11:40:50;;;;;;;7.18;2.90;;;;;;;26.05;59.85;100633.72;4882956;29;20033;-72
2022/05/24 11:43:35;;;;;;;3.83;2.80;;;;;;;26.30;58.67;100626.19;4869902;29;20116;-73
2022/05/24 11:46:33;;;;;;;5.53;2.63;;;;;;;25.81;58.63;100633.03;4882011;29;20076;-73
2022/05/24 11:49:19;;;;;;;5.50;2.70;;;;;;;25.95;60.37;100635.44;4883397;29;20088;-73
2022/05/24 11:53:00;;;;;;;6.60;2.90;;;;;;;26.19;63.66;100644.16;4883183;29;20081;-73
2022/05/24 11:56:08;;;;;;;8.63;3.70;;;;;;;26.04;66.00;100658.88;4830424;29;20027;-73
2022/05/24 11:59:04;;;;;;;9.05;3.50;;;;;;;25.95;69.56;100675.72;4882532;29;20041;-72
2022/05/24 12:01:50;;;;;;;14.85;3.80;;;;;;;25.72;73.24;100682.94;4882275;29;20096;-74
2022/05/24 12:08:31;;;;;;;6.35;3.05;;;;;;;25.57;79.33;100586.72;4882843;29;20048;-73
2022/05/24 12:11:32;;;;;;;5.22;3.03;;;;;;;24.68;81.63;100548.31;4881510;29;20459;-73
2022/05/24 12:14:24;;;;;;;5.25;3.72;;;;;;;25.34;77.70;100517.97;4882309;29;20120;-73
2022/05/24 12:17:15;;;;;;;7.32;2.95;;;;;;;25.55;75.57;100510.88;4882505;29;20352;-72
2022/05/24 12:20:04;;;;;;;9.15;3.15;;;;;;;25.59;70.99;100531.09;4881906;29;20087;-72
2022/05/24 12:23:08;;;;;;;4.20;2.88;;;;;;;25.32;74.27;100552.97;4882179;29;20039;-74
2022/05/24 12:26:07;;;;;;;9.38;6.85;;;;;;;25.25;73.94;100575.88;4882011;29;20105;-73
2022/05/24 12:28:55;;;;;;;11.07;6.53;;;;;;;25.00;71.67;100594.03;4881715;29;20029;-73
2022/05/24 12:31:41;;;;;;;5.13;3.13;;;;;;;25.80;69.35;100607.16;4882663;29;20498;-73
2022/05/24 12:34:30;;;;;;;10.80;3.00;;;;;;;26.57;59.59;100626.53;4882090;29;20040;-72
2022/05/24 12:37:23;;;;;;;6.72;2.33;;;;;;;26.20;60.62;100625.25;4881937;29;20447;-73
2022/05/24 12:40:09;;;;;;;6.95;2.60;;;;;;;26.79;61.70;100630.97;4868949;29;20033;-74
2022/05/24 12:42:59;;;;;;;5.15;2.50;;;;;;;27.10;60.98;100627.34;4868590;29;20028;-73
2022/05/24 12:45:47;;;;;;;4.05;2.78;;;;;;;27.08;64.23;100640.06;4881999;29;20064;-73
2022/05/24 12:48:37;;;;;;;4.38;2.80;;;;;;;27.02;65.23;100633.41;4869042;29;20178;-72
2022/05/24 12:51:22;;;;;;;11.60;3.10;;;;;;;25.39;70.37;100636.50;4882444;29;20107;-73
2022/05/24 12:54:26;;;;;;;9.43;3.00;;;;;;;24.22;75.74;100645.66;4881106;29;20060;-73
2022/05/24 12:57:28;;;;;;;5.60;2.70;;;;;;;24.55;71.94;100648.47;4882398;29;20089;-73
2022/05/24 13:00:23;;;;;;;4.47;2.47;;;;;;;24.88;68.63;100645.91;4881433;29;20055;-74
2022/05/24 13:03:22;;;;;;;6.13;2.70;;;;;;;25.01;70.18;100642.16;4881520;29;20047;-73
2022/05/24 13:06:08;;;;;;;7.35;3.40;;;;;;;25.43;80.25;100646.00;4881831;29;20033;-73
2022/05/24 13:09:26;;;;;;;8.80;4.55;;;;;;;25.26;90.08;100641.94;4880894;29;20415;-73
2022/05/24 13:12:13;;;;;;;12.80;4.03;;;;;;;25.20;93.56;100642.41;4880996;29;20043;-73
2022/05/24 13:15:05;;;;;;;7.88;4.40;;;;;;;24.79;96.90;100641.28;4868388;29;20057;-72
2022/05/24 13:17:58;;;;;;;6.03;3.78;;;;;;;24.51;98.63;100650.53;4881495;29;20021;-73
2022/05/24 13:20:46;;;;;;;5.78;3.33;;;;;;;24.89;96.62;100651.16;4880225;29;20383;-73
2022/05/24 13:23:32;;;;;;;8.10;4.10;;;;;;;24.70;98.85;100650.88;4881024;29;20072;-72
2022/05/24 13:26:19;;;;;;;7.75;3.78;;;;;;;24.76;100.00;100662.94;4881713;29;20081;-72
2022/05/24 13:29:24;;;;;;;7.25;4.03;;;;;;;24.71;100.00;100681.22;4881188;29;20371;-73
2022/05/24 13:35:16;;;;;;;23.45;16.58;;;;;;;24.85;98.82;100659.56;4881232;29;20403;-74
2022/05/24 13:38:02;;;;;;;6.03;3.55;;;;;;;24.84;99.34;100665.88;4868374;29;20061;-73
2022/05/24 13:40:55;;;;;;;5.88;3.45;;;;;;;24.47;100.00;100675.00;4867306;29;20088;-73
2022/05/24 13:43:44;;;;;;;5.55;3.70;;;;;;;24.67;100.00;100685.09;4880562;29;20036;-73
2022/05/24 13:46:30;;;;;;;8.82;4.32;;;;;;;24.78;100.00;100677.06;4867372;29;20487;-72
2022/05/24 13:49:38;;;;;;;8.27;4.13;;;;;;;24.77;100.00;100683.41;4881181;29;20033;-73
2022/05/24 13:52:50;;;;;;;5.35;3.70;;;;;;;24.97;99.56;100682.72;4880368;29;20052;-72
2022/05/24 13:55:40;;;;;;;4.50;3.40;;;;;;;24.84;98.65;100687.34;4880833;29;20462;-72